createdAt,value
2022-10-30T00:01:24.478Z,16.20
2022-10-30T00:03:52.875Z,15.90
2022-10-30T00:06:24.007Z,16.75
2022-10-30T00:08:52.625Z,16.13
2022-10-30T00:11:21.081Z,16.13
2022-10-30T00:13:50.400Z,15.90
2022-10-30T00:16:19.270Z,15.35
2022-10-30T00:18:47.752Z,14.98
2022-10-30T00:21:16.702Z,15.80
2022-10-30T00:23:52.857Z,17.08
2022-10-30T00:26:25.894Z,19.30
2022-10-30T00:28:57.563Z,20.33
2022-10-30T00:31:26.115Z,20.90
2022-10-30T00:33:55.668Z,18.92
2022-10-30T00:36:24.562Z,18.83
2022-10-30T00:38:52.884Z,18.65
2022-10-30T00:41:24.379Z,16.75
2022-10-30T00:43:53.990Z,16.23
2022-10-30T00:46:38.055Z,15.50
2022-10-30T00:49:13.124Z,14.15
2022-10-30T00:51:47.005Z,13.95
2022-10-30T00:54:18.298Z,13.35
2022-10-30T00:56:49.219Z,13.80
2022-10-30T00:59:24.979Z,12.50
2022-10-30T01:01:54.314Z,12.40
2022-10-30T01:04:28.999Z,11.90
2022-10-30T01:07:05.660Z,12.32
2022-10-30T01:09:34.655Z,12.18
2022-10-30T01:12:03.280Z,12.13
2022-10-30T01:14:34.070Z,12.07
2022-10-30T01:17:03.296Z,11.95
2022-10-30T01:19:42.768Z,11.93
2022-10-30T01:22:25.200Z,12.00
2022-10-30T01:25:05.908Z,11.43
2022-10-30T01:28:09.294Z,12.30
2022-10-30T01:31:07.853Z,11.77
2022-10-30T01:34:15.512Z,12.85
2022-10-30T01:36:50.000Z,11.88
2022-10-30T01:39:21.834Z,12.38
2022-10-30T01:41:50.774Z,12.00
2022-10-30T01:44:31.963Z,12.15
2022-10-30T01:47:09.469Z,12.75
2022-10-30T01:50:00.608Z,12.48
2022-10-30T01:52:49.772Z,13.23
2022-10-30T01:55:42.468Z,14.57
2022-10-30T01:58:20.225Z,13.23
2022-10-30T02:00:57.025Z,13.47
2022-10-30T02:03:27.387Z,13.65
2022-10-30T02:05:56.186Z,13.68
2022-10-30T02:08:25.709Z,13.52
2022-10-30T02:10:55.983Z,13.85
2022-10-30T02:16:07.219Z,13.90
2022-10-30T02:18:35.666Z,15.32
2022-10-30T02:21:06.821Z,15.63
2022-10-30T02:23:35.420Z,15.18
2022-10-30T02:26:04.206Z,15.32
2022-10-30T02:28:33.168Z,15.00
2022-10-30T02:31:01.639Z,15.40
2022-10-30T02:33:30.415Z,17.00
2022-10-30T02:35:59.090Z,15.73
2022-10-30T02:38:27.566Z,15.20
2022-10-30T02:40:58.283Z,16.52
2022-10-30T02:43:27.062Z,17.50
2022-10-30T02:45:55.718Z,19.20
2022-10-30T02:48:24.150Z,18.20
2022-10-30T02:50:52.974Z,18.23
2022-10-30T02:53:21.282Z,19.33
2022-10-30T02:55:49.786Z,18.73
2022-10-30T02:58:19.070Z,19.73
2022-10-30T03:00:47.696Z,17.17
2022-10-30T03:03:21.418Z,15.10
2022-10-30T03:05:52.733Z,17.70
2022-10-30T03:08:21.122Z,16.40
2022-10-30T03:10:49.684Z,16.08
2022-10-30T03:13:18.329Z,16.65
2022-10-30T03:15:46.978Z,16.85
2022-10-30T03:18:15.346Z,15.85
2022-10-30T03:20:45.951Z,18.02
2022-10-30T03:23:14.405Z,15.73
2022-10-30T03:25:43.159Z,15.60
2022-10-30T03:28:11.750Z,16.83
2022-10-30T03:30:41.011Z,18.05
2022-10-30T03:33:09.955Z,18.30
2022-10-30T03:35:38.519Z,17.25
2022-10-30T03:38:33.001Z,17.65
2022-10-30T03:41:01.700Z,17.80
2022-10-30T03:43:30.799Z,16.98
2022-10-30T03:45:59.277Z,17.48
2022-10-30T03:48:29.302Z,18.40
2022-10-30T03:51:00.448Z,18.52
2022-10-30T03:53:30.101Z,20.65
2022-10-30T03:56:04.250Z,21.75
2022-10-30T03:58:53.178Z,21.27
2022-10-30T04:01:23.877Z,19.35
2022-10-30T04:03:57.565Z,20.33
2022-10-30T04:06:53.068Z,20.33
2022-10-30T04:09:21.564Z,19.35
2022-10-30T04:11:50.004Z,18.17
2022-10-30T04:14:18.978Z,18.58
2022-10-30T04:16:47.802Z,18.42
2022-10-30T04:19:16.298Z,18.40
2022-10-30T04:21:47.996Z,19.95
2022-10-30T04:24:18.909Z,21.67
2022-10-30T04:26:50.926Z,20.38
2022-10-30T04:29:19.631Z,18.98
2022-10-30T04:31:48.962Z,20.23
2022-10-30T04:34:17.542Z,20.65
2022-10-30T04:36:45.920Z,19.85
2022-10-30T04:39:14.670Z,19.73
2022-10-30T04:41:44.602Z,19.65
2022-10-30T04:44:19.813Z,19.10
2022-10-30T04:46:48.404Z,20.80
2022-10-30T04:49:16.807Z,22.67
2022-10-30T04:51:47.782Z,22.52
2022-10-30T04:54:16.742Z,21.13
2022-10-30T04:56:45.399Z,21.73
2022-10-30T04:59:15.410Z,21.02
2022-10-30T05:01:45.387Z,22.65
2022-10-30T05:04:15.352Z,20.63
2022-10-30T05:06:45.039Z,20.05
2022-10-30T05:09:15.416Z,19.55
2022-10-30T05:11:44.523Z,18.30
2022-10-30T05:14:14.876Z,18.38
2022-10-30T05:16:46.215Z,20.95
2022-10-30T05:19:14.734Z,18.75
2022-10-30T05:21:49.818Z,18.60
2022-10-30T05:24:18.971Z,20.42
2022-10-30T05:26:47.618Z,19.67
2022-10-30T05:29:17.899Z,22.90
2022-10-30T05:31:46.381Z,22.90
2022-10-30T05:34:17.982Z,21.77
2022-10-30T05:36:49.181Z,19.65
2022-10-30T05:39:18.418Z,18.23
2022-10-30T05:44:34.367Z,18.75
2022-10-30T05:47:11.560Z,30.48
2022-10-30T05:49:42.963Z,29.23
2022-10-30T05:52:16.480Z,35.10
2022-10-30T05:54:45.166Z,39.38
2022-10-30T05:57:22.183Z,34.47
2022-10-30T05:59:51.171Z,34.08
2022-10-30T06:02:20.720Z,31.45
2022-10-30T06:04:49.882Z,32.13
2022-10-30T06:07:19.738Z,28.23
2022-10-30T06:09:48.224Z,26.70
2022-10-30T06:12:40.134Z,28.30
2022-10-30T06:15:21.779Z,24.83
2022-10-30T06:17:52.517Z,23.60
2022-10-30T06:20:41.172Z,23.58
2022-10-30T06:23:28.618Z,21.55
2022-10-30T06:28:45.366Z,21.48
2022-10-30T06:31:15.914Z,25.73
2022-10-30T06:33:44.331Z,37.25
2022-10-30T06:36:15.238Z,31.17
2022-10-30T06:38:44.461Z,33.58
2022-10-30T06:41:14.958Z,47.10
2022-10-30T06:44:02.364Z,88.38
2022-10-30T06:46:33.941Z,52.50
2022-10-30T06:49:04.144Z,44.92
2022-10-30T06:51:33.130Z,46.85
2022-10-30T06:54:02.113Z,52.00
2022-10-30T06:56:43.007Z,59.60
2022-10-30T06:59:22.003Z,34.53
2022-10-30T07:02:14.304Z,29.20
2022-10-30T07:05:06.158Z,26.55
2022-10-30T07:07:35.277Z,29.05
2022-10-30T07:10:04.080Z,31.13
2022-10-30T07:13:02.355Z,30.90
2022-10-30T07:15:48.967Z,28.85
2022-10-30T07:18:28.827Z,24.98
2022-10-30T07:21:04.877Z,23.70
2022-10-30T07:23:34.367Z,21.15
2022-10-30T07:26:25.996Z,19.67
2022-10-30T07:28:56.794Z,19.08
2022-10-30T07:31:42.363Z,18.20
2022-10-30T07:34:47.744Z,16.63
2022-10-30T07:37:32.739Z,15.23
2022-10-30T07:40:12.515Z,14.80
2022-10-30T07:43:03.038Z,15.10
2022-10-30T07:46:15.293Z,15.35
2022-10-30T07:49:16.144Z,14.68
2022-10-30T07:51:50.652Z,14.88
2022-10-30T07:54:20.443Z,14.63
2022-10-30T07:56:49.459Z,14.65
2022-10-30T07:59:36.358Z,13.63
2022-10-30T08:02:15.813Z,13.13
2022-10-30T08:05:07.462Z,13.10
2022-10-30T08:07:55.019Z,12.98
2022-10-30T08:10:23.852Z,12.63
2022-10-30T08:12:52.428Z,13.30
2022-10-30T08:15:24.573Z,10.98
2022-10-30T08:17:53.836Z,11.75
2022-10-30T08:20:25.547Z,10.20
2022-10-30T08:22:57.339Z,10.98
2022-10-30T08:25:29.350Z,10.95
2022-10-30T08:28:04.302Z,10.02
2022-10-30T08:30:38.325Z,10.00
2022-10-30T08:36:21.192Z,9.65
2022-10-30T08:38:57.909Z,8.65
2022-10-30T08:41:45.710Z,7.97
2022-10-30T08:44:41.424Z,8.23
2022-10-30T08:47:57.386Z,10.45
2022-10-30T08:50:28.549Z,9.70
2022-10-30T08:53:02.289Z,8.90
2022-10-30T08:55:35.226Z,8.52
2022-10-30T08:58:06.168Z,7.70
2022-10-30T09:00:35.989Z,7.00
2022-10-30T09:03:30.591Z,8.00
2022-10-30T09:06:35.039Z,7.50
2022-10-30T09:09:23.930Z,12.35
2022-10-30T09:11:56.146Z,8.88
2022-10-30T09:14:27.581Z,7.45
2022-10-30T09:17:48.530Z,9.52
2022-10-30T09:20:19.299Z,11.23
2022-10-30T09:22:51.264Z,8.18
2022-10-30T09:25:24.851Z,10.50
2022-10-30T09:28:07.918Z,5.32
2022-10-30T09:30:58.958Z,4.90
2022-10-30T09:33:32.591Z,4.90
2022-10-30T09:36:38.929Z,6.50
2022-10-30T09:39:21.839Z,4.95
2022-10-30T09:42:00.606Z,6.43
2022-10-30T09:44:40.570Z,5.45
2022-10-30T09:47:44.658Z,4.50
2022-10-30T09:50:31.356Z,4.40
2022-10-30T09:53:30.935Z,4.30
2022-10-30T09:56:43.689Z,3.50
2022-10-30T09:59:25.346Z,4.22
2022-10-30T10:04:50.052Z,5.00
2022-10-30T10:08:02.973Z,3.67
2022-10-30T10:11:03.287Z,4.22
2022-10-30T10:13:50.963Z,3.42
2022-10-30T10:16:23.897Z,3.40
2022-10-30T10:19:19.404Z,2.65
2022-10-30T10:21:56.271Z,3.10
2022-10-30T10:24:33.462Z,4.22
2022-10-30T10:27:14.997Z,3.55
2022-10-30T10:30:02.698Z,2.78
2022-10-30T10:33:01.656Z,3.70
2022-10-30T10:35:56.364Z,3.33
2022-10-30T10:38:31.633Z,5.57
2022-10-30T10:41:12.085Z,5.25
2022-10-30T10:44:00.266Z,4.40
2022-10-30T10:46:45.228Z,4.57
2022-10-30T10:49:44.781Z,7.22
2022-10-30T10:52:27.598Z,6.60
2022-10-30T10:55:02.814Z,7.72
2022-10-30T10:57:40.748Z,7.50
2022-10-30T11:00:23.959Z,8.25
2022-10-30T11:03:06.539Z,9.30
2022-10-30T11:05:49.778Z,9.55
2022-10-30T11:08:25.492Z,10.45
2022-10-30T11:11:04.697Z,9.85
2022-10-30T11:13:39.379Z,8.40
2022-10-30T11:16:46.462Z,8.52
2022-10-30T11:19:14.995Z,8.45
2022-10-30T11:21:49.158Z,8.05
2022-10-30T11:24:39.633Z,9.27
2022-10-30T11:27:26.466Z,9.52
2022-10-30T11:30:02.040Z,10.73
2022-10-30T11:32:35.098Z,9.68
2022-10-30T11:35:09.567Z,11.10
2022-10-30T11:37:43.592Z,10.43
2022-10-30T11:40:13.753Z,11.63
2022-10-30T11:42:46.556Z,13.85
2022-10-30T11:45:45.741Z,16.38
2022-10-30T11:48:54.865Z,13.32
2022-10-30T11:51:37.318Z,12.65
2022-10-30T11:54:07.915Z,13.25
2022-10-30T11:56:36.537Z,19.05
2022-10-30T11:59:06.097Z,14.85
2022-10-30T12:01:39.513Z,27.00
2022-10-30T12:04:34.591Z,10.30
2022-10-30T12:07:11.048Z,12.95
2022-10-30T12:09:47.528Z,15.32
2022-10-30T12:12:27.139Z,13.82
2022-10-30T12:14:55.977Z,12.43
2022-10-30T12:17:24.385Z,13.18
2022-10-30T12:19:55.613Z,15.55
2022-10-30T12:25:25.149Z,18.67
2022-10-30T12:28:16.250Z,11.65
2022-10-30T12:31:08.464Z,21.17
2022-10-30T12:33:50.592Z,12.38
2022-10-30T12:36:27.169Z,12.27
2022-10-30T12:39:33.927Z,19.42
2022-10-30T12:42:23.345Z,12.48
2022-10-30T12:45:10.353Z,12.52
2022-10-30T12:48:28.351Z,14.40
2022-10-30T12:51:21.388Z,11.43
2022-10-30T12:54:37.365Z,11.52
2022-10-30T12:57:15.223Z,11.20
2022-10-30T13:00:14.115Z,27.33
2022-10-30T13:03:20.081Z,13.07
2022-10-30T13:06:06.036Z,11.95
2022-10-30T13:08:48.608Z,11.10
2022-10-30T13:11:33.279Z,11.25
2022-10-30T13:16:32.351Z,13.30
2022-10-30T13:19:02.727Z,12.73
2022-10-30T13:22:08.173Z,14.23
2022-10-30T13:24:45.734Z,12.38
2022-10-30T13:27:43.955Z,15.07
2022-10-30T13:30:24.604Z,15.73
2022-10-30T13:33:08.578Z,16.10
2022-10-30T13:36:00.529Z,18.17
2022-10-30T13:38:57.016Z,18.73
2022-10-30T13:41:57.109Z,16.60
2022-10-30T13:44:32.855Z,17.48
2022-10-30T13:47:39.885Z,16.70
2022-10-30T13:50:42.146Z,15.38
2022-10-30T13:53:26.925Z,12.85
2022-10-30T13:55:56.816Z,12.32
2022-10-30T13:58:48.554Z,13.27
2022-10-30T14:01:23.853Z,11.27
2022-10-30T14:04:20.817Z,10.70
2022-10-30T14:07:27.978Z,11.05
2022-10-30T14:10:47.708Z,13.57
2022-10-30T14:13:39.005Z,12.75
2022-10-30T14:17:06.102Z,11.90
2022-10-30T14:24:45.124Z,12.82
2022-10-30T14:32:20.768Z,12.85
2022-10-30T14:34:55.558Z,30.80
2022-10-30T14:37:27.772Z,20.20
2022-10-30T14:39:57.511Z,18.38
2022-10-30T14:42:31.986Z,19.85
2022-10-30T14:45:25.185Z,20.02
2022-10-30T14:48:08.770Z,18.77
2022-10-30T14:51:05.861Z,17.40
2022-10-30T14:54:18.174Z,18.30
2022-10-30T14:56:53.198Z,16.83
2022-10-30T14:59:24.866Z,19.85
2022-10-30T15:02:19.841Z,20.63
2022-10-30T15:05:12.984Z,20.88
2022-10-30T15:07:58.018Z,20.05
2022-10-30T15:10:33.726Z,21.90
2022-10-30T15:13:21.555Z,23.67
2022-10-30T15:16:08.484Z,24.77
2022-10-30T15:18:40.107Z,23.45
2022-10-30T15:21:18.920Z,23.77
2022-10-30T15:23:50.378Z,21.60
2022-10-30T15:26:23.164Z,21.63
2022-10-30T15:28:53.392Z,21.23
2022-10-30T15:31:25.886Z,21.17
2022-10-30T15:33:55.753Z,21.88
2022-10-30T15:36:29.045Z,20.95
2022-10-30T15:39:16.686Z,20.98
2022-10-30T15:41:49.098Z,18.92
2022-10-30T15:44:22.606Z,20.70
2022-10-30T15:46:54.264Z,21.90
2022-10-30T15:51:54.517Z,22.60
2022-10-30T15:54:24.881Z,22.92
2022-10-30T15:59:54.602Z,24.50
2022-10-30T16:02:27.079Z,26.02
2022-10-30T16:04:56.017Z,24.30
2022-10-30T16:07:27.604Z,26.55
2022-10-30T16:09:58.510Z,29.10
2022-10-30T16:12:32.793Z,30.20
2022-10-30T16:15:08.660Z,36.03
2022-10-30T16:17:37.320Z,29.73
2022-10-30T16:20:06.152Z,33.53
2022-10-30T16:22:37.114Z,32.72
2022-10-30T16:25:12.953Z,31.27
2022-10-30T16:27:45.946Z,31.83
2022-10-30T16:30:16.532Z,35.42
2022-10-30T16:32:52.861Z,40.40
2022-10-30T16:35:23.904Z,47.92
2022-10-30T16:37:53.919Z,42.57
2022-10-30T16:40:28.571Z,39.17
2022-10-30T16:43:03.558Z,39.75
2022-10-30T16:45:32.277Z,42.35
2022-10-30T16:48:09.210Z,45.20
2022-10-30T16:50:38.941Z,44.35
2022-10-30T16:53:17.781Z,50.40
2022-10-30T16:55:46.709Z,58.47
2022-10-30T16:58:17.259Z,53.22
2022-10-30T17:00:53.330Z,51.63
2022-10-30T17:03:26.647Z,62.13
2022-10-30T17:06:06.401Z,64.72
2022-10-30T17:08:41.022Z,67.05
2022-10-30T17:11:20.775Z,51.38
2022-10-30T17:13:55.286Z,57.03
2022-10-30T17:16:32.876Z,50.85
2022-10-30T17:19:34.416Z,57.28
2022-10-30T17:22:08.192Z,64.75
2022-10-30T17:24:38.823Z,74.40
2022-10-30T17:27:46.573Z,65.55
2022-10-30T17:30:42.275Z,71.90
2022-10-30T17:33:36.740Z,74.82
2022-10-30T17:36:06.747Z,69.40
2022-10-30T17:38:35.182Z,74.45
2022-10-30T17:41:09.320Z,70.43
2022-10-30T17:43:49.738Z,75.93
2022-10-30T17:46:20.346Z,75.57
2022-10-30T17:48:49.284Z,74.45
2022-10-30T17:51:18.776Z,73.75
2022-10-30T17:53:50.432Z,73.50
2022-10-30T17:56:26.051Z,73.93
2022-10-30T17:58:59.792Z,70.18
2022-10-30T18:01:29.368Z,69.38
2022-10-30T18:03:58.655Z,68.85
2022-10-30T18:06:29.077Z,71.40
2022-10-30T18:09:03.200Z,68.30
2022-10-30T18:11:33.219Z,70.05
2022-10-30T18:14:02.322Z,76.82
2022-10-30T18:16:33.491Z,84.03
2022-10-30T18:19:03.664Z,90.93
2022-10-30T18:21:34.582Z,97.20
2022-10-30T18:24:27.429Z,93.45
2022-10-30T18:27:09.082Z,97.05
2022-10-30T18:29:49.656Z,89.10
2022-10-30T18:33:23.302Z,90.00
2022-10-30T18:35:39.469Z,89.43
2022-10-30T18:38:09.565Z,89.45
2022-10-30T18:43:15.851Z,95.72
2022-10-30T18:45:44.590Z,158.77
2022-10-30T18:48:13.699Z,152.60
2022-10-30T18:50:43.189Z,150.35
2022-10-30T18:53:21.309Z,145.23
2022-10-30T18:56:16.440Z,138.27
2022-10-30T18:59:11.997Z,177.45
2022-10-30T19:01:43.060Z,186.57
2022-10-30T19:04:16.770Z,169.35
2022-10-30T19:07:24.198Z,155.30
2022-10-30T19:10:03.944Z,143.48
2022-10-30T19:13:50.761Z,119.13
2022-10-30T19:16:20.658Z,123.13
2022-10-30T19:18:52.265Z,116.15
2022-10-30T19:21:25.812Z,83.00
2022-10-30T19:24:02.870Z,69.07
2022-10-30T19:26:31.704Z,80.47
2022-10-30T19:29:03.134Z,83.70
2022-10-30T19:31:31.877Z,94.65
2022-10-30T19:34:03.731Z,95.43
2022-10-30T19:36:38.481Z,89.15
2022-10-30T19:39:17.107Z,93.20
2022-10-30T19:41:47.125Z,90.20
2022-10-30T19:44:15.771Z,90.70
2022-10-30T19:46:46.698Z,88.80
2022-10-30T19:49:23.600Z,78.78
2022-10-30T19:51:51.975Z,93.50
2022-10-30T19:54:21.043Z,90.50
2022-10-30T19:56:49.561Z,99.57
2022-10-30T19:59:18.390Z,106.13
2022-10-30T20:01:46.914Z,130.30
2022-10-30T20:04:15.854Z,126.53
2022-10-30T20:06:44.678Z,128.82
2022-10-30T20:09:14.756Z,113.38
2022-10-30T20:11:47.694Z,127.25
2022-10-30T20:14:24.241Z,136.88
2022-10-30T20:17:18.068Z,142.80
2022-10-30T20:23:48.122Z,169.15
2022-10-30T20:26:28.951Z,176.23
2022-10-30T20:29:02.806Z,177.52
2022-10-30T20:31:33.276Z,171.68
2022-10-30T20:34:04.353Z,170.80
2022-10-30T20:36:33.605Z,156.20
2022-10-30T20:39:31.870Z,177.55
2022-10-30T20:45:47.962Z,162.00
2022-10-30T20:48:20.480Z,132.40
2022-10-30T20:50:54.229Z,109.75
2022-10-30T20:53:23.330Z,109.18
2022-10-30T20:55:52.209Z,99.38
2022-10-30T20:58:45.896Z,92.60
2022-10-30T21:01:15.287Z,87.95
2022-10-30T21:03:43.709Z,84.95
2022-10-30T21:06:13.550Z,91.55
2022-10-30T21:09:29.291Z,101.43
2022-10-30T21:12:47.272Z,104.50
2022-10-30T21:15:44.654Z,93.40
2022-10-30T21:18:38.279Z,88.75
2022-10-30T21:21:08.813Z,91.55
2022-10-30T21:23:37.493Z,88.03
2022-10-30T21:26:56.144Z,91.05
2022-10-30T21:29:43.361Z,87.22
2022-10-30T21:32:13.532Z,76.07
2022-10-30T21:34:41.981Z,71.00
2022-10-30T21:37:10.704Z,68.82
2022-10-30T21:39:39.753Z,59.30
2022-10-30T21:42:09.209Z,55.08
2022-10-30T21:44:37.571Z,52.88
2022-10-30T21:47:09.144Z,55.72
2022-10-30T21:49:37.891Z,45.00
2022-10-30T21:52:06.247Z,42.58
2022-10-30T21:54:34.571Z,43.75
2022-10-30T21:57:04.263Z,37.17
2022-10-30T21:59:32.702Z,38.67
2022-10-30T22:02:01.177Z,32.97
2022-10-30T22:04:31.269Z,39.17
2022-10-30T22:07:02.646Z,33.20
2022-10-30T22:09:31.256Z,34.58
2022-10-30T22:12:29.264Z,37.88
2022-10-30T22:14:58.002Z,41.67
2022-10-30T22:17:29.492Z,45.17
2022-10-30T22:20:00.957Z,42.95
2022-10-30T22:22:56.496Z,44.05
2022-10-30T22:25:28.638Z,43.10
2022-10-30T22:30:26.591Z,43.05
2022-10-30T22:32:55.020Z,47.00
2022-10-30T22:35:23.928Z,48.50
2022-10-30T22:37:52.457Z,44.13
2022-10-30T22:40:20.820Z,44.08
2022-10-30T22:42:49.432Z,42.50
2022-10-30T22:45:17.757Z,44.65
2022-10-30T22:47:46.035Z,42.58
2022-10-30T22:50:40.930Z,41.58
2022-10-30T22:54:24.147Z,48.95
2022-10-30T22:56:58.240Z,42.42
2022-10-30T22:59:54.381Z,40.95
2022-10-30T23:05:33.339Z,48.05
2022-10-30T23:08:02.309Z,44.83
2022-10-30T23:10:30.842Z,49.88
2022-10-30T23:13:01.565Z,44.00
2022-10-30T23:15:30.058Z,43.38
2022-10-30T23:17:59.174Z,45.08
2022-10-30T23:20:27.708Z,51.63
2022-10-30T23:22:57.493Z,45.60
2022-10-30T23:25:25.856Z,44.85
2022-10-30T23:28:20.244Z,42.60
2022-10-30T23:30:48.697Z,39.17
2022-10-30T23:33:17.329Z,41.58
2022-10-30T23:35:47.024Z,40.90
2022-10-30T23:38:15.685Z,47.10
2022-10-30T23:40:51.362Z,53.60
2022-10-30T23:43:20.131Z,49.88
2022-10-30T23:45:52.786Z,49.15
2022-10-30T23:48:21.270Z,46.92
2022-10-30T23:50:49.673Z,42.25
2022-10-30T23:53:18.338Z,48.83
2022-10-30T23:55:52.030Z,51.72
2022-10-30T23:58:21.799Z,44.67
